Time;durP1;ratioP1;P1;durP2;ratioP2;P2;SDS_P1;SDS_P2;PMS_P1;PMS_P2;Temp;Humidity;BMP_temperature;BMP_pressure;BME280_temperature;BME280_humidity;BME280_pressure;Samples;Min_cycle;Max_cycle;Signal;HPM_P1;HPM_P2
2023/07/13 00:01:07;;;;;;;2.35;0.80;;;;;;;;;;5145672;27;20046;-65
2023/07/13 00:03:34;;;;;;;2.60;0.73;;;;;;;;;;5132494;27;20068;-65
2023/07/13 00:06:02;;;;;;;6.78;0.98;;;;;;;;;;5147369;27;20078;-65
2023/07/13 00:08:32;;;;;;;2.78;0.60;;;;;;;;;;5126167;27;20059;-65
2023/07/13 00:11:01;;;;;;;3.58;0.75;;;;;;;;;;5141167;27;20099;-65
2023/07/13 00:13:29;;;;;;;3.33;0.70;;;;;;;;;;5144904;27;20115;-65
2023/07/13 00:15:56;;;;;;;2.22;0.60;;;;;;;;;;5142680;27;20039;-65
2023/07/13 00:18:23;;;;;;;5.95;0.60;;;;;;;;;;5143105;27;20043;-65
2023/07/13 00:20:51;;;;;;;3.63;0.90;;;;;;;;;;5150360;27;20121;-65
2023/07/13 00:23:18;;;;;;;1.30;0.60;;;;;;;;;;5128638;27;20050;-65
2023/07/13 00:25:46;;;;;;;3.03;0.70;;;;;;;;;;5143285;27;20458;-65
2023/07/13 00:28:14;;;;;;;4.53;0.85;;;;;;;;;;5150228;27;20047;-65
2023/07/13 00:30:42;;;;;;;2.08;0.63;;;;;;;;;;5144260;27;20051;-66
2023/07/13 00:33:09;;;;;;;2.03;0.55;;;;;;;;;;5141866;27;20046;-65
2023/07/13 00:35:38;;;;;;;4.18;0.75;;;;;;;;;;5144461;27;20045;-65
2023/07/13 00:38:05;;;;;;;3.08;0.60;;;;;;;;;;5147980;27;20118;-65
2023/07/13 00:40:32;;;;;;;3.72;0.65;;;;;;;;;;5140725;27;20058;-65
2023/07/13 00:43:00;;;;;;;4.38;0.90;;;;;;;;;;5142795;27;20038;-64
2023/07/13 00:45:46;;;;;;;1.48;0.50;;;;;;;;;;5142902;27;20043;-66
2023/07/13 00:48:15;;;;;;;2.58;0.80;;;;;;;;;;5145940;27;20158;-65
2023/07/13 00:50:43;;;;;;;3.83;0.60;;;;;;;;;;5120532;27;20439;-65
2023/07/13 00:53:11;;;;;;;2.20;0.57;;;;;;;;;;5141190;27;20130;-64
2023/07/13 00:55:39;;;;;;;2.17;0.60;;;;;;;;;;5143546;27;20895;-65
2023/07/13 00:58:07;;;;;;;4.53;0.60;;;;;;;;;;5143763;27;20058;-65
2023/07/13 01:00:36;;;;;;;2.25;0.70;;;;;;;;;;5134905;27;20102;-65
2023/07/13 01:03:04;;;;;;;2.10;0.52;;;;;;;;;;5126563;27;20504;-65
2023/07/13 01:05:34;;;;;;;2.20;0.60;;;;;;;;;;5147055;27;20043;-65
2023/07/13 01:08:03;;;;;;;3.47;0.50;;;;;;;;;;5137696;27;20046;-65
2023/07/13 01:10:38;;;;;;;2.20;0.50;;;;;;;;;;5147368;27;20401;-65
2023/07/13 01:13:06;;;;;;;0.93;0.40;;;;;;;;;;5147182;27;20054;-65
2023/07/13 01:15:38;;;;;;;3.13;0.50;;;;;;;;;;5134531;27;20513;-65
2023/07/13 01:18:05;;;;;;;3.60;0.40;;;;;;;;;;5139755;27;20043;-65
2023/07/13 01:20:36;;;;;;;2.20;0.43;;;;;;;;;;5143067;27;20053;-65
2023/07/13 01:23:07;;;;;;;2.50;0.93;;;;;;;;;;5122875;27;20457;-65
2023/07/13 01:25:35;;;;;;;1.08;0.45;;;;;;;;;;5146605;27;20442;-66
2023/07/13 01:28:02;;;;;;;3.95;0.88;;;;;;;;;;5140345;27;20542;-65
2023/07/13 01:30:31;;;;;;;3.28;0.50;;;;;;;;;;5141091;27;20075;-65
2023/07/13 01:32:58;;;;;;;2.60;0.60;;;;;;;;;;5144302;27;20053;-64
2023/07/13 01:35:26;;;;;;;1.15;0.30;;;;;;;;;;5142347;27;20043;-65
2023/07/13 01:37:54;;;;;;;2.28;0.55;;;;;;;;;;5139206;27;20059;-64
2023/07/13 01:40:22;;;;;;;5.13;0.50;;;;;;;;;;5138118;27;20047;-65
2023/07/13 01:42:50;;;;;;;3.30;0.47;;;;;;;;;;5144217;27;20095;-65
2023/07/13 01:45:17;;;;;;;3.22;0.60;;;;;;;;;;5138843;27;20120;-65
2023/07/13 01:47:44;;;;;;;2.92;0.70;;;;;;;;;;5132053;27;20046;-65
2023/07/13 01:50:11;;;;;;;1.88;0.52;;;;;;;;;;5132694;27;20050;-65
2023/07/13 01:52:39;;;;;;;0.65;0.40;;;;;;;;;;5117794;27;20054;-65
2023/07/13 01:55:07;;;;;;;4.15;0.70;;;;;;;;;;5136199;27;20043;-65
2023/07/13 01:57:35;;;;;;;3.90;0.65;;;;;;;;;;5138397;27;20481;-65
2023/07/13 02:00:05;;;;;;;2.75;0.65;;;;;;;;;;5136963;27;20035;-65
2023/07/13 02:02:32;;;;;;;3.83;0.80;;;;;;;;;;5132527;27;20074;-65
2023/07/13 02:05:00;;;;;;;5.07;0.85;;;;;;;;;;5135846;27;20050;-65
2023/07/13 02:07:27;;;;;;;6.20;0.90;;;;;;;;;;5142668;27;20497;-65
2023/07/13 02:09:54;;;;;;;3.67;1.00;;;;;;;;;;5145418;27;20179;-65
2023/07/13 02:12:21;;;;;;;1.33;0.60;;;;;;;;;;5145900;27;20146;-65
2023/07/13 02:14:50;;;;;;;2.35;0.75;;;;;;;;;;5148237;27;20481;-65
2023/07/13 02:17:17;;;;;;;4.53;0.80;;;;;;;;;;5145421;27;20488;-65
2023/07/13 02:19:44;;;;;;;5.07;1.10;;;;;;;;;;5143510;27;20051;-65
2023/07/13 02:22:12;;;;;;;2.40;0.70;;;;;;;;;;5146827;27;20404;-65
2023/07/13 02:24:39;;;;;;;2.17;0.70;;;;;;;;;;5143426;27;20043;-65
2023/07/13 02:27:06;;;;;;;6.57;1.02;;;;;;;;;;5142535;27;20085;-65
2023/07/13 02:29:34;;;;;;;4.57;0.90;;;;;;;;;;5134809;27;20043;-65
2023/07/13 02:32:02;;;;;;;4.13;0.88;;;;;;;;;;5146671;27;20049;-65
2023/07/13 02:34:30;;;;;;;2.67;0.70;;;;;;;;;;5143934;27;20361;-66
2023/07/13 02:36:57;;;;;;;3.47;0.80;;;;;;;;;;5137836;27;20054;-65
2023/07/13 02:39:24;;;;;;;7.55;1.02;;;;;;;;;;5145774;27;20142;-64
2023/07/13 02:41:52;;;;;;;5.97;1.08;;;;;;;;;;5141714;27;20069;-65
2023/07/13 02:44:19;;;;;;;3.40;0.75;;;;;;;;;;5123654;27;20055;-65
2023/07/13 02:46:46;;;;;;;6.30;0.98;;;;;;;;;;5146403;27;20050;-65
2023/07/13 02:49:15;;;;;;;2.17;0.60;;;;;;;;;;5128303;27;20465;-64
2023/07/13 02:51:42;;;;;;;3.83;0.90;;;;;;;;;;5126953;27;20707;-64
2023/07/13 02:54:11;;;;;;;5.50;0.90;;;;;;;;;;5147606;27;20050;-65
2023/07/13 02:56:39;;;;;;;8.40;1.10;;;;;;;;;;5142502;27;20408;-65
2023/07/13 02:59:06;;;;;;;3.40;0.93;;;;;;;;;;5144650;27;20047;-65
2023/07/13 03:01:35;;;;;;;3.83;0.95;;;;;;;;;;5143768;27;20366;-65
2023/07/13 03:04:02;;;;;;;6.18;0.90;;;;;;;;;;5151539;27;20095;-64
2023/07/13 03:06:31;;;;;;;5.57;0.90;;;;;;;;;;5147943;27;20481;-65
2023/07/13 03:08:59;;;;;;;5.30;0.90;;;;;;;;;;5144204;27;20059;-64
2023/07/13 03:11:27;;;;;;;2.47;1.00;;;;;;;;;;5147283;27;20074;-65
2023/07/13 03:13:54;;;;;;;5.88;1.00;;;;;;;;;;5146932;27;20051;-64
2023/07/13 03:16:22;;;;;;;5.47;1.10;;;;;;;;;;5141052;27;20043;-64
2023/07/13 03:18:49;;;;;;;3.25;0.90;;;;;;;;;;5144809;27;20057;-64
2023/07/13 03:21:17;;;;;;;2.05;0.75;;;;;;;;;;5125836;27;20038;-64
2023/07/13 03:23:45;;;;;;;3.25;1.10;;;;;;;;;;5150184;27;20521;-65
2023/07/13 03:26:14;;;;;;;6.15;1.40;;;;;;;;;;5142973;27;20043;-64
2023/07/13 03:28:41;;;;;;;4.72;1.17;;;;;;;;;;5149068;27;20038;-65
2023/07/13 03:31:09;;;;;;;4.03;1.10;;;;;;;;;;5124787;27;20043;-65
2023/07/13 03:33:37;;;;;;;5.32;1.00;;;;;;;;;;5147012;27;20046;-65
2023/07/13 03:36:05;;;;;;;3.30;1.10;;;;;;;;;;5148599;27;20046;-64
2023/07/13 03:38:32;;;;;;;4.38;1.10;;;;;;;;;;5148690;27;20050;-65
2023/07/13 03:41:01;;;;;;;4.88;1.05;;;;;;;;;;5128801;27;20445;-65
2023/07/13 03:43:28;;;;;;;7.10;1.25;;;;;;;;;;5144899;27;20413;-65
2023/07/13 03:45:55;;;;;;;3.55;1.30;;;;;;;;;;5139300;27;20045;-65
2023/07/13 03:48:22;;;;;;;6.18;1.33;;;;;;;;;;5147700;27;20047;-65
2023/07/13 03:50:50;;;;;;;8.85;1.85;;;;;;;;;;5146809;27;20066;-65
2023/07/13 03:53:18;;;;;;;8.05;1.40;;;;;;;;;;5142042;27;20057;-65
2023/07/13 03:55:45;;;;;;;4.95;1.52;;;;;;;;;;5148265;27;20084;-65
2023/07/13 03:58:27;;;;;;;2.90;1.20;;;;;;;;;;5145948;27;20047;-64
2023/07/13 04:00:54;;;;;;;4.05;1.10;;;;;;;;;;5146971;27;20062;-65
2023/07/13 04:03:22;;;;;;;4.78;1.30;;;;;;;;;;5128537;27;20126;-66
2023/07/13 04:05:49;;;;;;;2.97;1.10;;;;;;;;;;5140506;27;20797;-65
2023/07/13 04:08:17;;;;;;;7.63;1.27;;;;;;;;;;5144238;27;20039;-65
2023/07/13 04:10:44;;;;;;;4.20;1.20;;;;;;;;;;5138455;27;20039;-65
2023/07/13 04:13:11;;;;;;;4.75;1.42;;;;;;;;;;5140937;27;20046;-65
2023/07/13 04:15:40;;;;;;;5.13;1.70;;;;;;;;;;5144104;27;20050;-64
2023/07/13 04:18:08;;;;;;;3.25;1.02;;;;;;;;;;5137367;27;20092;-65
2023/07/13 04:20:36;;;;;;;4.22;1.30;;;;;;;;;;5145692;27;20055;-65
2023/07/13 04:23:03;;;;;;;3.50;1.20;;;;;;;;;;5148273;27;20054;-65
2023/07/13 04:25:30;;;;;;;5.80;1.40;;;;;;;;;;5146222;27;20042;-65
2023/07/13 04:27:58;;;;;;;3.95;1.30;;;;;;;;;;5138353;27;20051;-65
2023/07/13 04:30:26;;;;;;;4.10;1.40;;;;;;;;;;5143803;27;20051;-65
2023/07/13 04:32:54;;;;;;;6.15;1.40;;;;;;;;;;5143769;27;20047;-65
2023/07/13 04:35:22;;;;;;;5.35;1.10;;;;;;;;;;5144943;27;20427;-65
2023/07/13 04:37:50;;;;;;;4.47;1.45;;;;;;;;;;5145580;27;20046;-65
2023/07/13 04:40:17;;;;;;;6.65;1.30;;;;;;;;;;5144779;27;20481;-65
2023/07/13 04:42:45;;;;;;;9.20;1.42;;;;;;;;;;5141818;27;20043;-65
2023/07/13 04:45:13;;;;;;;4.50;1.33;;;;;;;;;;5143898;27;20479;-65
2023/07/13 04:47:40;;;;;;;12.00;1.58;;;;;;;;;;5143518;27;20043;-65
2023/07/13 04:50:10;;;;;;;10.13;1.52;;;;;;;;;;5145243;27;20485;-65
2023/07/13 04:52:38;;;;;;;5.25;1.40;;;;;;;;;;5138299;27;20051;-65
2023/07/13 04:55:05;;;;;;;3.70;1.13;;;;;;;;;;5140238;27;20440;-66
2023/07/13 04:57:33;;;;;;;6.40;1.65;;;;;;;;;;5142485;27;20078;-66
2023/07/13 05:00:00;;;;;;;4.50;1.27;;;;;;;;;;5141187;27;20061;-66
2023/07/13 05:02:31;;;;;;;3.60;1.17;;;;;;;;;;5142198;27;20054;-67
2023/07/13 05:04:58;;;;;;;2.88;1.20;;;;;;;;;;5143245;27;20089;-65
2023/07/13 05:07:27;;;;;;;2.38;0.98;;;;;;;;;;5122481;27;20102;-65
2023/07/13 05:09:54;;;;;;;2.67;0.98;;;;;;;;;;5142745;27;20043;-65
2023/07/13 05:12:22;;;;;;;3.17;0.80;;;;;;;;;;5140670;27;20397;-65
2023/07/13 05:14:49;;;;;;;3.70;1.10;;;;;;;;;;5142880;27;20049;-65
2023/07/13 05:17:17;;;;;;;3.05;0.95;;;;;;;;;;5137168;27;20077;-64
2023/07/13 05:19:44;;;;;;;2.35;0.75;;;;;;;;;;5139521;27;20062;-64
2023/07/13 05:22:11;;;;;;;3.15;0.80;;;;;;;;;;5140259;27;20117;-65
2023/07/13 05:24:39;;;;;;;10.07;0.90;;;;;;;;;;5137068;27;20039;-65
2023/07/13 05:27:07;;;;;;;1.98;0.70;;;;;;;;;;5137853;27;20054;-66
2023/07/13 05:29:34;;;;;;;5.45;0.93;;;;;;;;;;5142008;27;20055;-66
2023/07/13 05:32:01;;;;;;;3.28;0.90;;;;;;;;;;5136665;27;20408;-65
2023/07/13 05:34:29;;;;;;;3.25;0.80;;;;;;;;;;5131213;27;20173;-65
2023/07/13 05:36:56;;;;;;;3.13;0.80;;;;;;;;;;5142846;27;20473;-64
2023/07/13 05:39:24;;;;;;;10.00;0.77;;;;;;;;;;5143076;27;20507;-64
2023/07/13 05:41:53;;;;;;;5.10;1.50;;;;;;;;;;5141965;27;20052;-65
2023/07/13 05:44:20;;;;;;;3.63;1.10;;;;;;;;;;5141531;27;20050;-66
2023/07/13 05:46:47;;;;;;;3.08;0.80;;;;;;;;;;5138800;27;20055;-65
2023/07/13 05:49:14;;;;;;;2.25;0.90;;;;;;;;;;5136134;27;20043;-65
2023/07/13 05:51:41;;;;;;;4.97;0.88;;;;;;;;;;5140399;27;20065;-65
2023/07/13 05:54:09;;;;;;;2.08;0.70;;;;;;;;;;5138971;27;20035;-65
2023/07/13 05:56:36;;;;;;;1.65;0.70;;;;;;;;;;5146124;27;20136;-64
2023/07/13 05:59:05;;;;;;;2.05;0.80;;;;;;;;;;5137891;27;20516;-64
2023/07/13 06:01:32;;;;;;;5.00;0.82;;;;;;;;;;5132554;27;20055;-65
2023/07/13 06:03:59;;;;;;;3.92;0.90;;;;;;;;;;5119782;27;20050;-65
2023/07/13 06:06:27;;;;;;;2.83;0.70;;;;;;;;;;5143911;27;21679;-66
2023/07/13 06:08:54;;;;;;;3.08;0.70;;;;;;;;;;5140646;27;20889;-64
2023/07/13 06:11:22;;;;;;;1.58;0.60;;;;;;;;;;5138736;27;20131;-66
2023/07/13 06:13:50;;;;;;;2.80;0.60;;;;;;;;;;5148935;27;20077;-65
2023/07/13 06:16:19;;;;;;;4.05;0.77;;;;;;;;;;5133525;27;20050;-65
2023/07/13 06:18:46;;;;;;;2.25;0.70;;;;;;;;;;5144713;27;20039;-64
2023/07/13 06:21:14;;;;;;;4.18;0.98;;;;;;;;;;5122034;27;20050;-65
2023/07/13 06:23:42;;;;;;;2.50;0.70;;;;;;;;;;5142344;27;20089;-64
2023/07/13 06:26:09;;;;;;;3.42;0.70;;;;;;;;;;5144686;27;20039;-65
2023/07/13 06:28:37;;;;;;;2.47;0.68;;;;;;;;;;5138155;27;20042;-66
2023/07/13 06:31:06;;;;;;;3.28;0.70;;;;;;;;;;5142492;27;20397;-65
2023/07/13 06:33:35;;;;;;;4.95;0.70;;;;;;;;;;5132775;27;20138;-65
2023/07/13 06:36:03;;;;;;;2.90;0.75;;;;;;;;;;5149222;27;20469;-65
2023/07/13 06:38:30;;;;;;;4.43;0.70;;;;;;;;;;5141646;27;20375;-65
2023/07/13 06:40:57;;;;;;;2.35;0.70;;;;;;;;;;5145845;27;20051;-65
2023/07/13 06:43:25;;;;;;;1.33;0.60;;;;;;;;;;5143510;27;20050;-66
2023/07/13 06:45:53;;;;;;;1.80;0.80;;;;;;;;;;5150127;27;20530;-65
2023/07/13 06:48:20;;;;;;;4.43;0.88;;;;;;;;;;5140801;27;20478;-65
2023/07/13 06:50:50;;;;;;;1.35;0.50;;;;;;;;;;5145341;27;20796;-64
2023/07/13 06:53:19;;;;;;;1.42;0.65;;;;;;;;;;5125662;27;20551;-65
2023/07/13 06:55:46;;;;;;;2.20;0.70;;;;;;;;;;5146669;27;20042;-65
2023/07/13 06:58:13;;;;;;;3.35;0.63;;;;;;;;;;5143271;27;20375;-66
2023/07/13 07:00:41;;;;;;;1.65;0.65;;;;;;;;;;5144446;27;20494;-65
2023/07/13 07:03:08;;;;;;;2.20;0.63;;;;;;;;;;5149923;27;20106;-65
2023/07/13 07:05:35;;;;;;;1.70;0.57;;;;;;;;;;5148948;27;20677;-65
2023/07/13 07:08:04;;;;;;;2.22;0.50;;;;;;;;;;5123043;27;20059;-65
2023/07/13 07:10:31;;;;;;;0.55;0.43;;;;;;;;;;5128585;27;20062;-65
2023/07/13 07:12:59;;;;;;;1.52;0.50;;;;;;;;;;5129742;27;20355;-64
2023/07/13 07:15:26;;;;;;;1.73;0.70;;;;;;;;;;5127908;27;20405;-67
2023/07/13 07:17:54;;;;;;;1.10;0.50;;;;;;;;;;5128710;27;20044;-67
2023/07/13 07:20:21;;;;;;;3.00;0.77;;;;;;;;;;5127214;27;20491;-67
2023/07/13 07:22:48;;;;;;;1.73;0.60;;;;;;;;;;5127386;27;20044;-68
2023/07/13 07:25:17;;;;;;;2.13;0.77;;;;;;;;;;5126757;27;20051;-67
2023/07/13 07:27:44;;;;;;;2.28;0.60;;;;;;;;;;5126263;27;20397;-68
2023/07/13 07:30:12;;;;;;;1.08;0.50;;;;;;;;;;5130364;27;20070;-67
2023/07/13 07:32:40;;;;;;;2.25;0.57;;;;;;;;;;5129443;27;20486;-67
2023/07/13 07:35:07;;;;;;;2.55;0.60;;;;;;;;;;5124189;27;20104;-68
2023/07/13 07:37:34;;;;;;;4.95;0.70;;;;;;;;;;5128007;27;20074;-68
2023/07/13 07:40:02;;;;;;;2.47;0.80;;;;;;;;;;5125311;27;20104;-67
2023/07/13 07:42:31;;;;;;;2.50;0.75;;;;;;;;;;5127427;27;20052;-68
2023/07/13 07:44:58;;;;;;;2.60;0.73;;;;;;;;;;5122892;27;20046;-68
2023/07/13 07:47:25;;;;;;;2.03;0.70;;;;;;;;;;5129578;27;20039;-67
2023/07/13 07:49:52;;;;;;;1.98;0.63;;;;;;;;;;5126188;27;20050;-67
2023/07/13 07:52:20;;;;;;;3.33;0.65;;;;;;;;;;5124768;27;20410;-66
2023/07/13 07:54:47;;;;;;;1.67;0.77;;;;;;;;;;5124394;27;20051;-67
2023/07/13 07:57:14;;;;;;;3.00;1.00;;;;;;;;;;5127335;27;20055;-67
2023/07/13 07:59:43;;;;;;;1.25;0.60;;;;;;;;;;5125011;27;20047;-68
2023/07/13 08:02:11;;;;;;;2.45;0.70;;;;;;;;;;5127664;27;20047;-68
2023/07/13 08:04:38;;;;;;;1.30;0.65;;;;;;;;;;5121094;27;20410;-67
2023/07/13 08:07:06;;;;;;;3.90;0.70;;;;;;;;;;5120047;27;20047;-67
2023/07/13 08:09:33;;;;;;;3.58;1.00;;;;;;;;;;5137051;27;20046;-67
2023/07/13 08:12:01;;;;;;;3.65;0.77;;;;;;;;;;5140662;27;20051;-68
2023/07/13 08:14:28;;;;;;;2.35;0.73;;;;;;;;;;5144650;27;20053;-67
2023/07/13 08:16:57;;;;;;;4.47;0.90;;;;;;;;;;5130915;27;20073;-68
2023/07/13 08:19:24;;;;;;;2.58;1.10;;;;;;;;;;5150746;27;20050;-67
2023/07/13 08:21:51;;;;;;;2.72;0.80;;;;;;;;;;5143997;27;20488;-67
2023/07/13 08:24:18;;;;;;;3.63;0.70;;;;;;;;;;5145251;27;20042;-68
2023/07/13 08:26:47;;;;;;;1.98;1.02;;;;;;;;;;5127604;27;20051;-67
2023/07/13 08:29:14;;;;;;;2.63;0.80;;;;;;;;;;5124047;27;20047;-69
2023/07/13 08:31:41;;;;;;;1.58;0.50;;;;;;;;;;5142011;27;20058;-68
2023/07/13 08:34:10;;;;;;;1.33;0.50;;;;;;;;;;5129332;27;20047;-67
2023/07/13 08:36:37;;;;;;;8.38;0.77;;;;;;;;;;5146628;27;20047;-68
2023/07/13 08:39:06;;;;;;;1.60;0.68;;;;;;;;;;5146286;27;20038;-67
2023/07/13 08:41:34;;;;;;;2.90;1.15;;;;;;;;;;5126219;27;20065;-68
2023/07/13 08:44:03;;;;;;;2.20;0.60;;;;;;;;;;5143462;27;20043;-67
2023/07/13 08:46:33;;;;;;;3.38;0.80;;;;;;;;;;5144383;27;20043;-69
2023/07/13 08:49:03;;;;;;;3.90;0.75;;;;;;;;;;5146708;27;20039;-67
2023/07/13 08:51:35;;;;;;;1.88;0.65;;;;;;;;;;5125016;27;20051;-69
2023/07/13 08:54:03;;;;;;;1.90;0.52;;;;;;;;;;5141936;27;20481;-67
2023/07/13 08:56:32;;;;;;;1.45;0.70;;;;;;;;;;5142940;27;20051;-67
2023/07/13 08:59:00;;;;;;;2.05;0.55;;;;;;;;;;5140591;27;20378;-68
2023/07/13 09:01:31;;;;;;;5.05;0.60;;;;;;;;;;5144262;27;20053;-68
2023/07/13 09:04:01;;;;;;;1.38;0.57;;;;;;;;;;5143469;27;20054;-66
2023/07/13 09:06:32;;;;;;;2.38;0.40;;;;;;;;;;5144120;27;20046;-67
2023/07/13 09:09:03;;;;;;;1.75;0.57;;;;;;;;;;5141086;27;20051;-67
2023/07/13 09:11:38;;;;;;;0.88;0.40;;;;;;;;;;5122422;27;20645;-69
2023/07/13 09:14:21;;;;;;;1.42;0.50;;;;;;;;;;5147757;27;20054;-68
2023/07/13 09:16:49;;;;;;;1.07;0.57;;;;;;;;;;5141597;27;20065;-67
2023/07/13 09:19:22;;;;;;;0.88;0.40;;;;;;;;;;5147271;27;20050;-66
2023/07/13 09:21:50;;;;;;;1.30;0.60;;;;;;;;;;5137994;27;20389;-67
2023/07/13 09:24:29;;;;;;;2.22;0.60;;;;;;;;;;5145608;27;20122;-69
2023/07/13 09:26:57;;;;;;;0.65;0.40;;;;;;;;;;5138444;27;20047;-68
2023/07/13 09:29:28;;;;;;;4.75;0.65;;;;;;;;;;5141568;27;20049;-68
2023/07/13 09:31:58;;;;;;;1.80;0.50;;;;;;;;;;5145740;27;20051;-68
2023/07/13 09:34:25;;;;;;;1.88;0.57;;;;;;;;;;5145435;27;20086;-66
2023/07/13 09:36:53;;;;;;;2.55;0.65;;;;;;;;;;5143472;27;20054;-68
2023/07/13 09:39:25;;;;;;;1.90;0.60;;;;;;;;;;5146593;27;20047;-69
2023/07/13 09:41:56;;;;;;;2.58;0.47;;;;;;;;;;5137705;27;20093;-68
2023/07/13 09:44:30;;;;;;;1.30;0.50;;;;;;;;;;5141623;27;20070;-68
2023/07/13 09:46:58;;;;;;;3.60;0.75;;;;;;;;;;5139737;27;20099;-68
2023/07/13 09:49:26;;;;;;;1.50;0.57;;;;;;;;;;5147077;27;20043;-67
2023/07/13 09:51:59;;;;;;;2.42;0.63;;;;;;;;;;5147117;27;20055;-67
2023/07/13 09:54:27;;;;;;;3.10;0.60;;;;;;;;;;5140408;27;20067;-67
2023/07/13 09:56:59;;;;;;;1.70;0.80;;;;;;;;;;5140974;27;20042;-67
2023/07/13 09:59:28;;;;;;;0.80;0.55;;;;;;;;;;5141919;27;20099;-67
2023/07/13 10:01:56;;;;;;;0.90;0.65;;;;;;;;;;5141271;27;20074;-67
2023/07/13 10:04:29;;;;;;;4.35;1.20;;;;;;;;;;5138983;27;20043;-68
2023/07/13 10:07:06;;;;;;;1.90;0.77;;;;;;;;;;5140039;27;20065;-68
2023/07/13 10:09:34;;;;;;;1.05;0.60;;;;;;;;;;5146742;27;20103;-68
2023/07/13 10:12:03;;;;;;;3.83;0.68;;;;;;;;;;5123497;27;20055;-68
2023/07/13 10:14:30;;;;;;;3.92;0.70;;;;;;;;;;5140825;27;20043;-67
2023/07/13 10:17:01;;;;;;;3.17;0.60;;;;;;;;;;5147071;27;20039;-68
2023/07/13 10:19:31;;;;;;;1.65;0.75;;;;;;;;;;5139469;27;20766;-68
2023/07/13 10:21:59;;;;;;;1.63;0.77;;;;;;;;;;5143422;27;20137;-68
2023/07/13 10:24:27;;;;;;;1.60;0.88;;;;;;;;;;5121888;27;20121;-68
2023/07/13 10:27:07;;;;;;;4.82;0.90;;;;;;;;;;5141963;27;20134;-68
2023/07/13 10:29:38;;;;;;;5.70;1.10;;;;;;;;;;5145482;27;20474;-68
2023/07/13 10:32:11;;;;;;;1.80;0.77;;;;;;;;;;5145170;27;20047;-68
2023/07/13 10:34:38;;;;;;;5.60;1.00;;;;;;;;;;5144586;27;20043;-68
2023/07/13 10:37:07;;;;;;;3.55;1.23;;;;;;;;;;5143576;27;20043;-68
2023/07/13 10:39:35;;;;;;;3.88;1.33;;;;;;;;;;5140985;27;20050;-68
2023/07/13 10:42:04;;;;;;;2.83;0.80;;;;;;;;;;5146157;27;20047;-67
2023/07/13 10:44:33;;;;;;;2.45;0.70;;;;;;;;;;5142841;27;20127;-68
2023/07/13 10:47:03;;;;;;;2.08;0.60;;;;;;;;;;5141065;27;20482;-68
2023/07/13 10:49:31;;;;;;;5.15;0.80;;;;;;;;;;5142632;27;20074;-68
2023/07/13 10:51:59;;;;;;;3.28;0.80;;;;;;;;;;5137903;27;20054;-69
2023/07/13 10:54:28;;;;;;;3.83;0.70;;;;;;;;;;5142170;27;20517;-70
2023/07/13 10:57:09;;;;;;;4.07;0.70;;;;;;;;;;5137570;27;20035;-68
2023/07/13 10:59:36;;;;;;;1.98;0.73;;;;;;;;;;5124656;27;20055;-67
2023/07/13 11:02:12;;;;;;;2.45;0.82;;;;;;;;;;5145743;27;20045;-68
2023/07/13 11:04:44;;;;;;;2.47;0.80;;;;;;;;;;5145129;27;20096;-68
2023/07/13 11:07:21;;;;;;;2.35;0.90;;;;;;;;;;5141677;27;20042;-68
2023/07/13 11:09:51;;;;;;;2.05;0.82;;;;;;;;;;5145591;27;20058;-67
2023/07/13 11:12:30;;;;;;;2.45;0.93;;;;;;;;;;5144607;27;20049;-68
2023/07/13 11:15:11;;;;;;;3.30;1.13;;;;;;;;;;5144452;27;20043;-69
2023/07/13 11:17:49;;;;;;;4.50;1.15;;;;;;;;;;5147677;27;20051;-68
2023/07/13 11:20:24;;;;;;;2.42;0.90;;;;;;;;;;5127046;27;20091;-70
2023/07/13 11:22:53;;;;;;;4.57;1.00;;;;;;;;;;5150048;27;20039;-69
2023/07/13 11:25:28;;;;;;;3.63;1.13;;;;;;;;;;5146086;27;20050;-68
2023/07/13 11:28:07;;;;;;;1.90;1.00;;;;;;;;;;5144770;27;20054;-67
2023/07/13 11:30:36;;;;;;;2.95;1.15;;;;;;;;;;5145469;27;20458;-69
2023/07/13 11:33:12;;;;;;;4.95;1.20;;;;;;;;;;5143418;27;20046;-68
2023/07/13 11:35:43;;;;;;;3.78;0.90;;;;;;;;;;5145754;27;20043;-69
2023/07/13 11:38:14;;;;;;;6.40;1.20;;;;;;;;;;5142687;27;20051;-68
2023/07/13 11:40:42;;;;;;;3.53;1.00;;;;;;;;;;5138447;27;20050;-67
2023/07/13 11:43:10;;;;;;;2.65;1.17;;;;;;;;;;5146384;27;20492;-69
2023/07/13 11:45:37;;;;;;;4.93;1.27;;;;;;;;;;5147860;27;20211;-68
2023/07/13 11:48:06;;;;;;;3.40;1.45;;;;;;;;;;5140691;27;20051;-67
2023/07/13 11:50:33;;;;;;;4.70;1.10;;;;;;;;;;5148045;27;20051;-68
2023/07/13 11:53:01;;;;;;;3.40;1.23;;;;;;;;;;5149148;27;20062;-67
2023/07/13 11:55:28;;;;;;;3.53;1.10;;;;;;;;;;5139156;27;20382;-67
2023/07/13 11:58:01;;;;;;;2.85;1.10;;;;;;;;;;5142930;27;20042;-68
2023/07/13 12:00:31;;;;;;;3.17;0.93;;;;;;;;;;5142047;27;20055;-67
2023/07/13 12:03:00;;;;;;;3.83;1.20;;;;;;;;;;5148071;27;20049;-66
2023/07/13 12:05:31;;;;;;;2.50;1.10;;;;;;;;;;5136723;27;21485;-67
2023/07/13 12:07:58;;;;;;;2.33;1.10;;;;;;;;;;5130313;27;20151;-67
2023/07/13 12:10:28;;;;;;;2.53;0.85;;;;;;;;;;5149701;27;20056;-68
2023/07/13 12:12:57;;;;;;;3.47;1.00;;;;;;;;;;5132230;27;20072;-67
2023/07/13 12:15:26;;;;;;;4.03;1.25;;;;;;;;;;5143451;27;20401;-69
2023/07/13 12:17:56;;;;;;;3.00;1.00;;;;;;;;;;5149268;27;20082;-68
2023/07/13 12:20:24;;;;;;;6.22;1.05;;;;;;;;;;5145069;27;20070;-67
2023/07/13 12:22:53;;;;;;;3.63;1.20;;;;;;;;;;5149354;27;20397;-68
2023/07/13 12:25:21;;;;;;;4.18;1.10;;;;;;;;;;5146261;27;20049;-68
2023/07/13 12:27:49;;;;;;;3.63;1.33;;;;;;;;;;5141068;27;20695;-66
2023/07/13 12:30:28;;;;;;;2.33;0.98;;;;;;;;;;5146462;27;20046;-68
2023/07/13 12:32:59;;;;;;;2.10;0.80;;;;;;;;;;5150803;27;20050;-68
2023/07/13 12:35:35;;;;;;;3.63;0.95;;;;;;;;;;5143706;27;20043;-69
2023/07/13 12:38:03;;;;;;;2.30;1.00;;;;;;;;;;5141471;27;20121;-70
2023/07/13 12:40:34;;;;;;;4.55;1.10;;;;;;;;;;5145831;27;20057;-68
2023/07/13 12:43:04;;;;;;;2.20;0.95;;;;;;;;;;5143174;27;20408;-69
2023/07/13 12:45:32;;;;;;;3.38;1.38;;;;;;;;;;5148434;27;20131;-68
2023/07/13 12:48:00;;;;;;;2.35;1.08;;;;;;;;;;5142011;27;20057;-68
2023/07/13 12:50:31;;;;;;;2.88;1.25;;;;;;;;;;5140640;27;20045;-68
2023/07/13 12:53:06;;;;;;;3.42;1.10;;;;;;;;;;5146963;27;20039;-69
2023/07/13 12:55:42;;;;;;;1.98;0.90;;;;;;;;;;5142313;27;20082;-69
2023/07/13 12:58:16;;;;;;;3.70;1.35;;;;;;;;;;5141508;27;20053;-68
2023/07/13 13:00:52;;;;;;;3.38;1.10;;;;;;;;;;5148197;27;20043;-69
2023/07/13 13:03:23;;;;;;;7.13;1.48;;;;;;;;;;5139844;27;20142;-67
2023/07/13 13:05:50;;;;;;;2.88;1.13;;;;;;;;;;5142600;27;20043;-69
2023/07/13 13:08:18;;;;;;;2.60;1.08;;;;;;;;;;5141160;27;20130;-69
2023/07/13 13:10:46;;;;;;;5.15;1.23;;;;;;;;;;5137455;27;20050;-69
2023/07/13 13:13:15;;;;;;;5.35;1.38;;;;;;;;;;5137837;27;20050;-67
2023/07/13 13:15:42;;;;;;;4.20;1.33;;;;;;;;;;5140114;27;20142;-68
2023/07/13 13:18:16;;;;;;;4.28;1.20;;;;;;;;;;5139768;27;20427;-69
2023/07/13 13:20:44;;;;;;;4.45;1.23;;;;;;;;;;5143273;27;20042;-68
2023/07/13 13:23:13;;;;;;;5.13;1.30;;;;;;;;;;5140899;27;20051;-69
2023/07/13 13:25:41;;;;;;;4.68;1.52;;;;;;;;;;5141667;27;20046;-69
2023/07/13 13:28:15;;;;;;;7.55;1.25;;;;;;;;;;5144979;27;20055;-69
2023/07/13 13:30:43;;;;;;;4.18;1.25;;;;;;;;;;5138810;27;20043;-68
2023/07/13 13:33:12;;;;;;;7.75;1.60;;;;;;;;;;5135429;27;20050;-69
2023/07/13 13:35:39;;;;;;;4.90;1.30;;;;;;;;;;5145011;27;20053;-70
2023/07/13 13:38:11;;;;;;;7.70;1.60;;;;;;;;;;5141514;27;20900;-69
2023/07/13 13:40:38;;;;;;;5.40;1.40;;;;;;;;;;5139145;27;20051;-68
2023/07/13 13:43:06;;;;;;;1.75;0.90;;;;;;;;;;5140164;27;20474;-69
2023/07/13 13:45:35;;;;;;;2.95;1.40;;;;;;;;;;5138859;27;20051;-69
2023/07/13 13:48:02;;;;;;;3.78;1.10;;;;;;;;;;5141934;27;20049;-69
2023/07/13 13:50:29;;;;;;;3.03;1.10;;;;;;;;;;5146110;27;20473;-70
2023/07/13 13:52:57;;;;;;;3.97;1.38;;;;;;;;;;5142606;27;20047;-70
2023/07/13 13:55:24;;;;;;;4.18;1.10;;;;;;;;;;5121877;27;20050;-70
2023/07/13 13:57:51;;;;;;;3.85;1.20;;;;;;;;;;5143274;27;20136;-69
2023/07/13 14:00:19;;;;;;;4.65;1.50;;;;;;;;;;5143351;27;20073;-69
2023/07/13 14:02:50;;;;;;;5.07;1.30;;;;;;;;;;5144046;27;20088;-68
2023/07/13 14:05:22;;;;;;;3.05;1.27;;;;;;;;;;5139898;27;20047;-70
2023/07/13 14:07:49;;;;;;;2.47;1.17;;;;;;;;;;5143271;27;20054;-68
2023/07/13 14:10:18;;;;;;;4.63;1.30;;;;;;;;;;5146198;27;20083;-70
2023/07/13 14:12:46;;;;;;;3.00;1.23;;;;;;;;;;5145581;27;20096;-71
2023/07/13 14:15:18;;;;;;;3.58;1.30;;;;;;;;;;5146190;27;20066;-68
2023/07/13 14:17:49;;;;;;;1.20;1.10;;;;;;;;;;5118889;27;20055;-69
2023/07/13 14:20:17;;;;;;;2.35;1.40;;;;;;;;;;5146791;27;20473;-68
2023/07/13 14:22:45;;;;;;;4.72;1.20;;;;;;;;;;5146008;27;20043;-69
2023/07/13 14:25:13;;;;;;;1.80;1.25;;;;;;;;;;5143111;27;20081;-69
2023/07/13 14:27:40;;;;;;;2.60;1.30;;;;;;;;;;5139173;27;20103;-69
2023/07/13 14:30:14;;;;;;;4.20;1.30;;;;;;;;;;5134013;27;20061;-70
2023/07/13 14:32:41;;;;;;;1.45;1.02;;;;;;;;;;5142407;27;20035;-68
2023/07/13 14:35:12;;;;;;;5.22;1.38;;;;;;;;;;5121596;27;20541;-69
2023/07/13 14:37:39;;;;;;;4.75;1.38;;;;;;;;;;5119753;27;20154;-69
2023/07/13 14:40:13;;;;;;;4.40;1.60;;;;;;;;;;5145349;27;20130;-69
2023/07/13 14:42:40;;;;;;;8.18;1.85;;;;;;;;;;5140166;27;20047;-68
2023/07/13 14:45:13;;;;;;;4.22;1.35;;;;;;;;;;5149983;27;20489;-70
2023/07/13 14:47:40;;;;;;;3.15;1.48;;;;;;;;;;5145249;27;20043;-69
2023/07/13 14:50:13;;;;;;;4.47;1.80;;;;;;;;;;5151246;27;20508;-69
2023/07/13 14:52:40;;;;;;;;;;;;;;;;;;5126680;27;20062;-69